sensor_id;sensor_type;location;lat;lon;timestamp;P1;durP1;ratioP1;P2;durP2;ratioP2
64633;SDS011;51043;52.406;9.690;2022-11-14T00:01:25;73.80;;;41.57;;
64633;SDS011;51043;52.406;9.690;2022-11-14T00:04:11;68.70;;;40.67;;
64633;SDS011;51043;52.406;9.690;2022-11-14T00:06:56;65.40;;;39.47;;
64633;SDS011;51043;52.406;9.690;2022-11-14T00:09:42;69.80;;;41.27;;
64633;SDS011;51043;52.406;9.690;2022-11-14T00:12:28;74.33;;;41.77;;
64633;SDS011;51043;52.406;9.690;2022-11-14T00:15:14;71.33;;;42.73;;
64633;SDS011;51043;52.406;9.690;2022-11-14T00:17:59;68.80;;;41.70;;
64633;SDS011;51043;52.406;9.690;2022-11-14T00:20:48;70.27;;;43.40;;
64633;SDS011;51043;52.406;9.690;2022-11-14T00:23:35;70.13;;;42.13;;
64633;SDS011;51043;52.406;9.690;2022-11-14T00:26:20;69.07;;;41.27;;
64633;SDS011;51043;52.406;9.690;2022-11-14T00:29:06;65.37;;;40.70;;
64633;SDS011;51043;52.406;9.690;2022-11-14T00:31:53;74.97;;;43.40;;
64633;SDS011;51043;52.406;9.690;2022-11-14T00:34:38;65.57;;;41.27;;
64633;SDS011;51043;52.406;9.690;2022-11-14T00:37:24;64.90;;;39.90;;
64633;SDS011;51043;52.406;9.690;2022-11-14T00:40:10;66.00;;;40.30;;
64633;SDS011;51043;52.406;9.690;2022-11-14T00:42:58;68.07;;;41.63;;
64633;SDS011;51043;52.406;9.690;2022-11-14T00:45:44;60.53;;;38.53;;
64633;SDS011;51043;52.406;9.690;2022-11-14T00:48:29;63.93;;;39.27;;
64633;SDS011;51043;52.406;9.690;2022-11-14T00:51:15;64.27;;;39.07;;
64633;SDS011;51043;52.406;9.690;2022-11-14T00:54:01;68.07;;;40.67;;
64633;SDS011;51043;52.406;9.690;2022-11-14T00:56:46;68.60;;;41.07;;
64633;SDS011;51043;52.406;9.690;2022-11-14T00:59:32;70.00;;;40.97;;
64633;SDS011;51043;52.406;9.690;2022-11-14T01:02:17;64.23;;;39.33;;
64633;SDS011;51043;52.406;9.690;2022-11-14T01:05:03;63.77;;;38.47;;
64633;SDS011;51043;52.406;9.690;2022-11-14T01:07:52;58.30;;;37.47;;
64633;SDS011;51043;52.406;9.690;2022-11-14T01:10:42;64.57;;;39.23;;
64633;SDS011;51043;52.406;9.690;2022-11-14T01:13:31;57.50;;;35.50;;
64633;SDS011;51043;52.406;9.690;2022-11-14T01:16:17;55.43;;;35.87;;
64633;SDS011;51043;52.406;9.690;2022-11-14T01:19:04;62.17;;;37.93;;
64633;SDS011;51043;52.406;9.690;2022-11-14T01:21:49;59.93;;;38.60;;
64633;SDS011;51043;52.406;9.690;2022-11-14T01:24:35;62.50;;;37.93;;
64633;SDS011;51043;52.406;9.690;2022-11-14T01:27:21;63.57;;;38.97;;
64633;SDS011;51043;52.406;9.690;2022-11-14T01:30:06;62.40;;;37.80;;
64633;SDS011;51043;52.406;9.690;2022-11-14T01:32:52;57.90;;;38.43;;
64633;SDS011;51043;52.406;9.690;2022-11-14T01:35:38;47.77;;;29.90;;
64633;SDS011;51043;52.406;9.690;2022-11-14T01:38:26;51.03;;;33.67;;
64633;SDS011;51043;52.406;9.690;2022-11-14T01:41:12;54.27;;;36.00;;
64633;SDS011;51043;52.406;9.690;2022-11-14T01:43:59;53.63;;;34.60;;
64633;SDS011;51043;52.406;9.690;2022-11-14T01:46:45;50.43;;;33.40;;
64633;SDS011;51043;52.406;9.690;2022-11-14T01:49:37;52.33;;;34.77;;
64633;SDS011;51043;52.406;9.690;2022-11-14T01:52:26;57.70;;;35.93;;
64633;SDS011;51043;52.406;9.690;2022-11-14T01:55:17;59.10;;;34.47;;
64633;SDS011;51043;52.406;9.690;2022-11-14T01:58:04;55.67;;;36.80;;
64633;SDS011;51043;52.406;9.690;2022-11-14T02:00:50;54.07;;;34.70;;
64633;SDS011;51043;52.406;9.690;2022-11-14T02:03:36;50.23;;;33.13;;
64633;SDS011;51043;52.406;9.690;2022-11-14T02:06:24;53.47;;;32.67;;
64633;SDS011;51043;52.406;9.690;2022-11-14T02:09:13;50.13;;;34.77;;
64633;SDS011;51043;52.406;9.690;2022-11-14T02:12:01;54.13;;;34.27;;
64633;SDS011;51043;52.406;9.690;2022-11-14T02:14:57;54.47;;;34.63;;
64633;SDS011;51043;52.406;9.690;2022-11-14T02:20:36;58.93;;;35.47;;
64633;SDS011;51043;52.406;9.690;2022-11-14T02:23:24;58.93;;;36.17;;
64633;SDS011;51043;52.406;9.690;2022-11-14T02:26:20;60.83;;;35.40;;
64633;SDS011;51043;52.406;9.690;2022-11-14T02:29:07;59.87;;;36.63;;
64633;SDS011;51043;52.406;9.690;2022-11-14T02:31:54;57.57;;;35.97;;
64633;SDS011;51043;52.406;9.690;2022-11-14T02:34:40;59.10;;;38.07;;
64633;SDS011;51043;52.406;9.690;2022-11-14T02:37:25;59.87;;;38.10;;
64633;SDS011;51043;52.406;9.690;2022-11-14T02:40:11;62.53;;;39.53;;
64633;SDS011;51043;52.406;9.690;2022-11-14T02:42:56;57.67;;;38.47;;
64633;SDS011;51043;52.406;9.690;2022-11-14T02:45:42;69.10;;;39.67;;
64633;SDS011;51043;52.406;9.690;2022-11-14T02:48:28;61.83;;;38.93;;
64633;SDS011;51043;52.406;9.690;2022-11-14T02:51:13;59.03;;;39.00;;
64633;SDS011;51043;52.406;9.690;2022-11-14T02:53:59;59.57;;;37.13;;
64633;SDS011;51043;52.406;9.690;2022-11-14T02:56:48;67.97;;;40.07;;
64633;SDS011;51043;52.406;9.690;2022-11-14T02:59:39;62.53;;;37.17;;
64633;SDS011;51043;52.406;9.690;2022-11-14T03:02:25;63.63;;;39.97;;
64633;SDS011;51043;52.406;9.690;2022-11-14T03:05:10;65.10;;;40.40;;
64633;SDS011;51043;52.406;9.690;2022-11-14T03:07:56;54.87;;;36.37;;
64633;SDS011;51043;52.406;9.690;2022-11-14T03:10:44;55.30;;;36.67;;
64633;SDS011;51043;52.406;9.690;2022-11-14T03:13:29;54.23;;;35.27;;
64633;SDS011;51043;52.406;9.690;2022-11-14T03:16:15;50.63;;;33.90;;
64633;SDS011;51043;52.406;9.690;2022-11-14T03:19:00;50.97;;;32.43;;
64633;SDS011;51043;52.406;9.690;2022-11-14T03:21:46;47.63;;;31.57;;
64633;SDS011;51043;52.406;9.690;2022-11-14T03:24:31;55.93;;;36.00;;
64633;SDS011;51043;52.406;9.690;2022-11-14T03:30:29;53.50;;;35.23;;
64633;SDS011;51043;52.406;9.690;2022-11-14T03:33:15;50.67;;;33.13;;
64633;SDS011;51043;52.406;9.690;2022-11-14T03:36:02;53.63;;;34.40;;
64633;SDS011;51043;52.406;9.690;2022-11-14T03:38:50;51.47;;;33.60;;
64633;SDS011;51043;52.406;9.690;2022-11-14T03:41:37;57.70;;;35.73;;
64633;SDS011;51043;52.406;9.690;2022-11-14T03:44:22;59.23;;;37.60;;
64633;SDS011;51043;52.406;9.690;2022-11-14T03:47:08;60.23;;;37.47;;
64633;SDS011;51043;52.406;9.690;2022-11-14T03:49:53;59.53;;;36.17;;
64633;SDS011;51043;52.406;9.690;2022-11-14T03:52:41;57.97;;;35.63;;
64633;SDS011;51043;52.406;9.690;2022-11-14T03:55:26;53.40;;;35.53;;
64633;SDS011;51043;52.406;9.690;2022-11-14T03:58:14;59.83;;;37.70;;
64633;SDS011;51043;52.406;9.690;2022-11-14T04:01:02;59.97;;;38.10;;
64633;SDS011;51043;52.406;9.690;2022-11-14T04:03:47;61.83;;;39.17;;
64633;SDS011;51043;52.406;9.690;2022-11-14T04:06:35;62.50;;;38.30;;
64633;SDS011;51043;52.406;9.690;2022-11-14T04:09:20;61.63;;;39.33;;
64633;SDS011;51043;52.406;9.690;2022-11-14T04:12:07;60.13;;;38.43;;
64633;SDS011;51043;52.406;9.690;2022-11-14T04:14:55;65.77;;;40.43;;
64633;SDS011;51043;52.406;9.690;2022-11-14T04:17:43;61.87;;;38.60;;
64633;SDS011;51043;52.406;9.690;2022-11-14T04:20:29;59.43;;;39.03;;
64633;SDS011;51043;52.406;9.690;2022-11-14T04:23:16;64.00;;;39.17;;
64633;SDS011;51043;52.406;9.690;2022-11-14T04:26:02;61.13;;;37.77;;
64633;SDS011;51043;52.406;9.690;2022-11-14T04:28:47;60.00;;;38.67;;
64633;SDS011;51043;52.406;9.690;2022-11-14T04:31:33;58.17;;;37.33;;
64633;SDS011;51043;52.406;9.690;2022-11-14T04:34:19;59.23;;;36.77;;
64633;SDS011;51043;52.406;9.690;2022-11-14T04:37:05;64.23;;;38.77;;
64633;SDS011;51043;52.406;9.690;2022-11-14T04:39:51;59.77;;;37.60;;
64633;SDS011;51043;52.406;9.690;2022-11-14T04:42:36;62.47;;;37.97;;
64633;SDS011;51043;52.406;9.690;2022-11-14T04:45:22;62.57;;;38.97;;
64633;SDS011;51043;52.406;9.690;2022-11-14T04:48:07;62.10;;;37.37;;
64633;SDS011;51043;52.406;9.690;2022-11-14T04:50:53;59.93;;;37.87;;
64633;SDS011;51043;52.406;9.690;2022-11-14T04:53:38;59.07;;;37.33;;
64633;SDS011;51043;52.406;9.690;2022-11-14T04:56:24;60.83;;;37.87;;
64633;SDS011;51043;52.406;9.690;2022-11-14T04:59:10;60.03;;;37.53;;
64633;SDS011;51043;52.406;9.690;2022-11-14T05:01:56;63.43;;;39.77;;
64633;SDS011;51043;52.406;9.690;2022-11-14T05:04:42;63.70;;;39.07;;
64633;SDS011;51043;52.406;9.690;2022-11-14T05:07:29;62.10;;;39.23;;
64633;SDS011;51043;52.406;9.690;2022-11-14T05:10:15;60.63;;;38.57;;
64633;SDS011;51043;52.406;9.690;2022-11-14T05:13:01;66.20;;;40.63;;
64633;SDS011;51043;52.406;9.690;2022-11-14T05:15:46;64.73;;;39.87;;
64633;SDS011;51043;52.406;9.690;2022-11-14T05:18:32;67.93;;;40.30;;
64633;SDS011;51043;52.406;9.690;2022-11-14T05:21:18;65.07;;;39.67;;
64633;SDS011;51043;52.406;9.690;2022-11-14T05:24:03;67.00;;;38.70;;
64633;SDS011;51043;52.406;9.690;2022-11-14T05:26:49;65.57;;;38.90;;
64633;SDS011;51043;52.406;9.690;2022-11-14T05:29:34;67.70;;;38.20;;
64633;SDS011;51043;52.406;9.690;2022-11-14T05:32:20;67.43;;;38.50;;
64633;SDS011;51043;52.406;9.690;2022-11-14T05:35:06;66.07;;;38.63;;
64633;SDS011;51043;52.406;9.690;2022-11-14T05:37:52;60.83;;;37.77;;
64633;SDS011;51043;52.406;9.690;2022-11-14T05:40:40;69.07;;;40.30;;
64633;SDS011;51043;52.406;9.690;2022-11-14T05:43:28;65.63;;;38.93;;
64633;SDS011;51043;52.406;9.690;2022-11-14T05:46:14;66.87;;;39.53;;
64633;SDS011;51043;52.406;9.690;2022-11-14T05:49:00;58.87;;;35.90;;
64633;SDS011;51043;52.406;9.690;2022-11-14T05:51:45;62.63;;;37.10;;
64633;SDS011;51043;52.406;9.690;2022-11-14T05:54:31;61.00;;;35.83;;
64633;SDS011;51043;52.406;9.690;2022-11-14T05:57:16;56.43;;;33.83;;
64633;SDS011;51043;52.406;9.690;2022-11-14T06:00:03;61.73;;;36.40;;
64633;SDS011;51043;52.406;9.690;2022-11-14T06:02:53;55.07;;;34.27;;
64633;SDS011;51043;52.406;9.690;2022-11-14T06:05:40;63.80;;;38.30;;
64633;SDS011;51043;52.406;9.690;2022-11-14T06:08:27;67.20;;;36.93;;
64633;SDS011;51043;52.406;9.690;2022-11-14T06:11:15;67.00;;;38.60;;
64633;SDS011;51043;52.406;9.690;2022-11-14T06:14:02;65.83;;;39.40;;
64633;SDS011;51043;52.406;9.690;2022-11-14T06:16:49;63.33;;;37.33;;
64633;SDS011;51043;52.406;9.690;2022-11-14T06:19:35;66.03;;;38.40;;
64633;SDS011;51043;52.406;9.690;2022-11-14T06:22:20;60.40;;;38.57;;
64633;SDS011;51043;52.406;9.690;2022-11-14T06:25:06;64.63;;;37.87;;
64633;SDS011;51043;52.406;9.690;2022-11-14T06:27:52;62.67;;;38.53;;
64633;SDS011;51043;52.406;9.690;2022-11-14T06:30:38;63.73;;;39.63;;
64633;SDS011;51043;52.406;9.690;2022-11-14T06:33:25;61.40;;;37.33;;
64633;SDS011;51043;52.406;9.690;2022-11-14T06:36:12;63.27;;;37.23;;
64633;SDS011;51043;52.406;9.690;2022-11-14T06:38:58;64.50;;;39.17;;
64633;SDS011;51043;52.406;9.690;2022-11-14T06:41:43;71.30;;;40.37;;
64633;SDS011;51043;52.406;9.690;2022-11-14T06:44:29;64.80;;;37.83;;
64633;SDS011;51043;52.406;9.690;2022-11-14T06:47:15;65.77;;;40.93;;
64633;SDS011;51043;52.406;9.690;2022-11-14T06:50:01;58.43;;;37.03;;
64633;SDS011;51043;52.406;9.690;2022-11-14T06:52:49;62.47;;;37.33;;
64633;SDS011;51043;52.406;9.690;2022-11-14T06:55:34;65.50;;;38.57;;
64633;SDS011;51043;52.406;9.690;2022-11-14T06:58:29;57.17;;;35.83;;
64633;SDS011;51043;52.406;9.690;2022-11-14T07:01:19;59.57;;;36.20;;
64633;SDS011;51043;52.406;9.690;2022-11-14T07:04:07;58.37;;;35.90;;
64633;SDS011;51043;52.406;9.690;2022-11-14T07:06:53;56.23;;;35.37;;
64633;SDS011;51043;52.406;9.690;2022-11-14T07:09:38;61.60;;;35.50;;
64633;SDS011;51043;52.406;9.690;2022-11-14T07:12:24;66.40;;;39.50;;
64633;SDS011;51043;52.406;9.690;2022-11-14T07:15:09;55.63;;;35.10;;
64633;SDS011;51043;52.406;9.690;2022-11-14T07:17:55;58.60;;;37.47;;
64633;SDS011;51043;52.406;9.690;2022-11-14T07:20:42;58.67;;;35.23;;
64633;SDS011;51043;52.406;9.690;2022-11-14T07:23:28;61.33;;;36.33;;
64633;SDS011;51043;52.406;9.690;2022-11-14T07:26:15;57.07;;;35.27;;
64633;SDS011;51043;52.406;9.690;2022-11-14T07:29:01;63.93;;;37.30;;
64633;SDS011;51043;52.406;9.690;2022-11-14T07:31:47;65.23;;;37.67;;
64633;SDS011;51043;52.406;9.690;2022-11-14T07:34:33;60.53;;;36.00;;
64633;SDS011;51043;52.406;9.690;2022-11-14T07:37:18;61.93;;;37.47;;
64633;SDS011;51043;52.406;9.690;2022-11-14T07:40:05;57.50;;;35.20;;
64633;SDS011;51043;52.406;9.690;2022-11-14T07:42:55;57.87;;;35.50;;
64633;SDS011;51043;52.406;9.690;2022-11-14T07:45:42;60.00;;;36.10;;
64633;SDS011;51043;52.406;9.690;2022-11-14T07:48:28;55.37;;;34.33;;
64633;SDS011;51043;52.406;9.690;2022-11-14T07:51:16;53.87;;;34.03;;
64633;SDS011;51043;52.406;9.690;2022-11-14T07:54:02;57.57;;;35.73;;
64633;SDS011;51043;52.406;9.690;2022-11-14T07:56:48;59.30;;;35.30;;
64633;SDS011;51043;52.406;9.690;2022-11-14T07:59:33;60.80;;;35.00;;
64633;SDS011;51043;52.406;9.690;2022-11-14T08:02:19;57.70;;;34.93;;
64633;SDS011;51043;52.406;9.690;2022-11-14T08:05:04;58.20;;;34.70;;
64633;SDS011;51043;52.406;9.690;2022-11-14T08:07:50;54.33;;;34.57;;
64633;SDS011;51043;52.406;9.690;2022-11-14T08:10:36;57.97;;;35.13;;
64633;SDS011;51043;52.406;9.690;2022-11-14T08:13:22;61.53;;;35.90;;
64633;SDS011;51043;52.406;9.690;2022-11-14T08:16:16;59.97;;;36.93;;
64633;SDS011;51043;52.406;9.690;2022-11-14T08:19:02;65.07;;;36.80;;
64633;SDS011;51043;52.406;9.690;2022-11-14T08:21:47;57.30;;;36.73;;
64633;SDS011;51043;52.406;9.690;2022-11-14T08:24:33;65.13;;;36.70;;
64633;SDS011;51043;52.406;9.690;2022-11-14T08:27:19;62.60;;;36.23;;
64633;SDS011;51043;52.406;9.690;2022-11-14T08:30:04;60.23;;;37.23;;
64633;SDS011;51043;52.406;9.690;2022-11-14T08:32:50;59.77;;;36.67;;
64633;SDS011;51043;52.406;9.690;2022-11-14T08:35:36;66.40;;;38.83;;
64633;SDS011;51043;52.406;9.690;2022-11-14T08:38:22;65.00;;;38.67;;
64633;SDS011;51043;52.406;9.690;2022-11-14T08:41:07;65.53;;;38.67;;
64633;SDS011;51043;52.406;9.690;2022-11-14T08:43:53;57.27;;;35.83;;
64633;SDS011;51043;52.406;9.690;2022-11-14T08:46:38;69.97;;;37.00;;
64633;SDS011;51043;52.406;9.690;2022-11-14T08:49:24;62.27;;;37.50;;
64633;SDS011;51043;52.406;9.690;2022-11-14T08:52:10;55.97;;;34.57;;
64633;SDS011;51043;52.406;9.690;2022-11-14T08:54:59;60.17;;;36.70;;
64633;SDS011;51043;52.406;9.690;2022-11-14T08:57:45;57.87;;;36.83;;
64633;SDS011;51043;52.406;9.690;2022-11-14T09:00:33;54.63;;;33.53;;
64633;SDS011;51043;52.406;9.690;2022-11-14T09:03:18;55.43;;;33.30;;
64633;SDS011;51043;52.406;9.690;2022-11-14T09:06:04;58.93;;;35.80;;
64633;SDS011;51043;52.406;9.690;2022-11-14T09:08:49;56.67;;;35.00;;
64633;SDS011;51043;52.406;9.690;2022-11-14T09:11:35;56.00;;;33.97;;
64633;SDS011;51043;52.406;9.690;2022-11-14T09:14:21;50.77;;;32.37;;
64633;SDS011;51043;52.406;9.690;2022-11-14T09:17:06;51.67;;;29.50;;
64633;SDS011;51043;52.406;9.690;2022-11-14T09:19:52;55.33;;;34.70;;
64633;SDS011;51043;52.406;9.690;2022-11-14T09:22:38;59.97;;;34.73;;
64633;SDS011;51043;52.406;9.690;2022-11-14T09:25:23;60.63;;;35.73;;
64633;SDS011;51043;52.406;9.690;2022-11-14T09:28:10;57.70;;;35.97;;
64633;SDS011;51043;52.406;9.690;2022-11-14T09:31:01;56.17;;;35.33;;
64633;SDS011;51043;52.406;9.690;2022-11-14T09:33:51;55.50;;;33.47;;
64633;SDS011;51043;52.406;9.690;2022-11-14T09:36:37;51.53;;;34.97;;
64633;SDS011;51043;52.406;9.690;2022-11-14T09:39:22;55.10;;;35.07;;
64633;SDS011;51043;52.406;9.690;2022-11-14T09:47:47;56.33;;;35.40;;
64633;SDS011;51043;52.406;9.690;2022-11-14T09:50:39;53.20;;;35.07;;
64633;SDS011;51043;52.406;9.690;2022-11-14T09:53:52;53.53;;;33.90;;
64633;SDS011;51043;52.406;9.690;2022-11-14T09:57:00;62.93;;;40.40;;
64633;SDS011;51043;52.406;9.690;2022-11-14T09:59:46;55.07;;;35.13;;
64633;SDS011;51043;52.406;9.690;2022-11-14T10:02:36;51.17;;;34.07;;
64633;SDS011;51043;52.406;9.690;2022-11-14T10:08:54;50.97;;;34.17;;
64633;SDS011;51043;52.406;9.690;2022-11-14T10:11:51;53.33;;;34.50;;
64633;SDS011;51043;52.406;9.690;2022-11-14T10:14:56;57.13;;;33.63;;
64633;SDS011;51043;52.406;9.690;2022-11-14T10:21:04;49.00;;;32.20;;
64633;SDS011;51043;52.406;9.690;2022-11-14T10:24:17;49.60;;;33.20;;
64633;SDS011;51043;52.406;9.690;2022-11-14T10:27:18;50.90;;;34.07;;
64633;SDS011;51043;52.406;9.690;2022-11-14T10:30:11;53.37;;;35.07;;
64633;SDS011;51043;52.406;9.690;2022-11-14T10:35:54;60.40;;;35.20;;
64633;SDS011;51043;52.406;9.690;2022-11-14T10:38:54;53.13;;;35.40;;
64633;SDS011;51043;52.406;9.690;2022-11-14T10:41:56;54.93;;;35.30;;
64633;SDS011;51043;52.406;9.690;2022-11-14T10:44:51;46.17;;;32.23;;
64633;SDS011;51043;52.406;9.690;2022-11-14T10:47:47;49.77;;;33.53;;
64633;SDS011;51043;52.406;9.690;2022-11-14T10:56:56;46.67;;;32.60;;
64633;SDS011;51043;52.406;9.690;2022-11-14T10:59:41;48.50;;;32.37;;
64633;SDS011;51043;52.406;9.690;2022-11-14T11:02:29;49.47;;;33.97;;
64633;SDS011;51043;52.406;9.690;2022-11-14T11:05:58;51.33;;;34.00;;
64633;SDS011;51043;52.406;9.690;2022-11-14T11:08:44;49.57;;;33.23;;
64633;SDS011;51043;52.406;9.690;2022-11-14T11:11:56;48.97;;;31.33;;
64633;SDS011;51043;52.406;9.690;2022-11-14T11:14:43;47.37;;;32.27;;
64633;SDS011;51043;52.406;9.690;2022-11-14T11:17:29;47.67;;;32.17;;
64633;SDS011;51043;52.406;9.690;2022-11-14T11:23:17;46.70;;;30.50;;
64633;SDS011;51043;52.406;9.690;2022-11-14T11:26:07;45.30;;;30.27;;
64633;SDS011;51043;52.406;9.690;2022-11-14T11:31:57;47.93;;;31.63;;
64633;SDS011;51043;52.406;9.690;2022-11-14T11:34:43;41.17;;;29.23;;
64633;SDS011;51043;52.406;9.690;2022-11-14T11:37:30;39.93;;;27.40;;
64633;SDS011;51043;52.406;9.690;2022-11-14T11:40:21;44.30;;;27.17;;
64633;SDS011;51043;52.406;9.690;2022-11-14T11:46:25;34.90;;;25.67;;
64633;SDS011;51043;52.406;9.690;2022-11-14T11:55:22;44.17;;;27.80;;
64633;SDS011;51043;52.406;9.690;2022-11-14T11:58:14;40.67;;;28.33;;
64633;SDS011;51043;52.406;9.690;2022-11-14T12:01:08;43.20;;;29.23;;
64633;SDS011;51043;52.406;9.690;2022-11-14T12:03:54;42.60;;;28.83;;
64633;SDS011;51043;52.406;9.690;2022-11-14T12:10:09;45.77;;;30.27;;
64633;SDS011;51043;52.406;9.690;2022-11-14T12:16:17;45.20;;;30.53;;
64633;SDS011;51043;52.406;9.690;2022-11-14T12:19:26;43.83;;;30.37;;
64633;SDS011;51043;52.406;9.690;2022-11-14T12:22:42;43.47;;;29.97;;
64633;SDS011;51043;52.406;9.690;2022-11-14T12:25:56;49.83;;;32.80;;
64633;SDS011;51043;52.406;9.690;2022-11-14T12:29:22;63.20;;;41.40;;
64633;SDS011;51043;52.406;9.690;2022-11-14T12:32:31;65.73;;;44.23;;
64633;SDS011;51043;52.406;9.690;2022-11-14T12:35:30;61.87;;;43.33;;
64633;SDS011;51043;52.406;9.690;2022-11-14T12:38:17;62.97;;;41.53;;
64633;SDS011;51043;52.406;9.690;2022-11-14T12:41:05;57.93;;;38.07;;
64633;SDS011;51043;52.406;9.690;2022-11-14T12:43:51;56.50;;;37.00;;
64633;SDS011;51043;52.406;9.690;2022-11-14T12:47:10;57.03;;;37.50;;
64633;SDS011;51043;52.406;9.690;2022-11-14T12:49:58;58.83;;;38.30;;
64633;SDS011;51043;52.406;9.690;2022-11-14T12:58:30;49.07;;;36.57;;
64633;SDS011;51043;52.406;9.690;2022-11-14T13:04:41;45.87;;;32.57;;
64633;SDS011;51043;52.406;9.690;2022-11-14T13:10:43;39.77;;;28.67;;
64633;SDS011;51043;52.406;9.690;2022-11-14T13:13:29;41.93;;;29.00;;
64633;SDS011;51043;52.406;9.690;2022-11-14T13:16:36;41.73;;;28.87;;
64633;SDS011;51043;52.406;9.690;2022-11-14T13:19:44;40.97;;;28.47;;
64633;SDS011;51043;52.406;9.690;2022-11-14T13:22:49;37.73;;;26.90;;
64633;SDS011;51043;52.406;9.690;2022-11-14T13:25:34;39.23;;;26.93;;
64633;SDS011;51043;52.406;9.690;2022-11-14T13:43:25;36.23;;;26.77;;
64633;SDS011;51043;52.406;9.690;2022-11-14T13:46:20;35.40;;;26.27;;
64633;SDS011;51043;52.406;9.690;2022-11-14T13:49:36;39.10;;;28.47;;
64633;SDS011;51043;52.406;9.690;2022-11-14T13:52:32;37.03;;;24.60;;
64633;SDS011;51043;52.406;9.690;2022-11-14T14:18:00;35.90;;;26.70;;
64633;SDS011;51043;52.406;9.690;2022-11-14T14:30:17;34.37;;;25.23;;
64633;SDS011;51043;52.406;9.690;2022-11-14T14:35:53;34.47;;;25.73;;
64633;SDS011;51043;52.406;9.690;2022-11-14T14:38:39;36.83;;;26.20;;
64633;SDS011;51043;52.406;9.690;2022-11-14T14:41:24;36.00;;;26.80;;
64633;SDS011;51043;52.406;9.690;2022-11-14T14:50:21;40.07;;;29.67;;
64633;SDS011;51043;52.406;9.690;2022-11-14T14:53:24;38.23;;;27.03;;
64633;SDS011;51043;52.406;9.690;2022-11-14T14:56:18;35.10;;;27.33;;
64633;SDS011;51043;52.406;9.690;2022-11-14T14:59:19;40.07;;;28.40;;
64633;SDS011;51043;52.406;9.690;2022-11-14T15:02:11;41.80;;;28.87;;
64633;SDS011;51043;52.406;9.690;2022-11-14T15:05:00;49.57;;;29.97;;
64633;SDS011;51043;52.406;9.690;2022-11-14T15:07:46;42.53;;;30.33;;
64633;SDS011;51043;52.406;9.690;2022-11-14T15:10:33;41.87;;;29.80;;
64633;SDS011;51043;52.406;9.690;2022-11-14T15:13:19;45.83;;;30.87;;
64633;SDS011;51043;52.406;9.690;2022-11-14T15:16:04;46.47;;;30.40;;
64633;SDS011;51043;52.406;9.690;2022-11-14T15:18:52;41.40;;;31.07;;
64633;SDS011;51043;52.406;9.690;2022-11-14T15:21:39;45.90;;;31.07;;
64633;SDS011;51043;52.406;9.690;2022-11-14T15:24:24;42.30;;;31.03;;
64633;SDS011;51043;52.406;9.690;2022-11-14T15:27:11;41.73;;;31.53;;
64633;SDS011;51043;52.406;9.690;2022-11-14T15:30:00;41.43;;;31.87;;
64633;SDS011;51043;52.406;9.690;2022-11-14T15:32:52;43.30;;;32.33;;
64633;SDS011;51043;52.406;9.690;2022-11-14T15:35:39;45.93;;;31.63;;
64633;SDS011;51043;52.406;9.690;2022-11-14T15:38:28;41.20;;;32.03;;
64633;SDS011;51043;52.406;9.690;2022-11-14T15:41:32;48.47;;;32.43;;
64633;SDS011;51043;52.406;9.690;2022-11-14T15:44:28;45.77;;;32.37;;
64633;SDS011;51043;52.406;9.690;2022-11-14T15:47:27;44.23;;;32.50;;
64633;SDS011;51043;52.406;9.690;2022-11-14T15:53:00;45.03;;;33.40;;
64633;SDS011;51043;52.406;9.690;2022-11-14T15:55:48;46.20;;;33.53;;
64633;SDS011;51043;52.406;9.690;2022-11-14T15:58:33;49.20;;;33.90;;
64633;SDS011;51043;52.406;9.690;2022-11-14T16:01:21;48.17;;;32.40;;
64633;SDS011;51043;52.406;9.690;2022-11-14T16:04:19;49.83;;;34.30;;
64633;SDS011;51043;52.406;9.690;2022-11-14T16:07:09;49.43;;;32.93;;
64633;SDS011;51043;52.406;9.690;2022-11-14T16:09:56;45.13;;;33.70;;
64633;SDS011;51043;52.406;9.690;2022-11-14T16:12:44;51.50;;;32.93;;
64633;SDS011;51043;52.406;9.690;2022-11-14T16:15:33;54.67;;;34.83;;
64633;SDS011;51043;52.406;9.690;2022-11-14T16:18:18;48.57;;;35.70;;
64633;SDS011;51043;52.406;9.690;2022-11-14T16:21:04;50.70;;;34.53;;
64633;SDS011;51043;52.406;9.690;2022-11-14T16:23:49;50.17;;;35.20;;
64633;SDS011;51043;52.406;9.690;2022-11-14T16:26:35;49.60;;;35.33;;
64633;SDS011;51043;52.406;9.690;2022-11-14T16:29:22;60.57;;;40.40;;
64633;SDS011;51043;52.406;9.690;2022-11-14T16:32:09;50.43;;;36.23;;
64633;SDS011;51043;52.406;9.690;2022-11-14T16:34:55;60.47;;;36.33;;
64633;SDS011;51043;52.406;9.690;2022-11-14T16:37:41;59.13;;;36.97;;
64633;SDS011;51043;52.406;9.690;2022-11-14T16:40:27;58.00;;;37.53;;
64633;SDS011;51043;52.406;9.690;2022-11-14T16:43:12;55.17;;;36.00;;
64633;SDS011;51043;52.406;9.690;2022-11-14T16:46:02;56.03;;;38.33;;
64633;SDS011;51043;52.406;9.690;2022-11-14T16:48:51;58.23;;;39.43;;
64633;SDS011;51043;52.406;9.690;2022-11-14T16:51:38;62.03;;;39.20;;
64633;SDS011;51043;52.406;9.690;2022-11-14T16:54:30;59.57;;;38.50;;
64633;SDS011;51043;52.406;9.690;2022-11-14T16:57:17;61.77;;;39.90;;
64633;SDS011;51043;52.406;9.690;2022-11-14T17:00:06;61.47;;;39.03;;
64633;SDS011;51043;52.406;9.690;2022-11-14T17:02:54;60.03;;;38.17;;
64633;SDS011;51043;52.406;9.690;2022-11-14T17:05:43;61.17;;;39.20;;
64633;SDS011;51043;52.406;9.690;2022-11-14T17:08:29;55.03;;;38.67;;
64633;SDS011;51043;52.406;9.690;2022-11-14T17:11:15;56.97;;;38.77;;
64633;SDS011;51043;52.406;9.690;2022-11-14T17:14:00;58.57;;;38.00;;
64633;SDS011;51043;52.406;9.690;2022-11-14T17:16:46;60.60;;;37.23;;
64633;SDS011;51043;52.406;9.690;2022-11-14T17:19:31;56.37;;;38.67;;
64633;SDS011;51043;52.406;9.690;2022-11-14T17:22:17;52.73;;;37.40;;
64633;SDS011;51043;52.406;9.690;2022-11-14T17:25:03;57.03;;;37.07;;
64633;SDS011;51043;52.406;9.690;2022-11-14T17:27:49;60.50;;;35.80;;
64633;SDS011;51043;52.406;9.690;2022-11-14T17:30:44;58.07;;;35.70;;
64633;SDS011;51043;52.406;9.690;2022-11-14T17:33:30;55.30;;;35.30;;
64633;SDS011;51043;52.406;9.690;2022-11-14T17:36:15;55.23;;;36.43;;
64633;SDS011;51043;52.406;9.690;2022-11-14T17:39:01;48.97;;;34.30;;
64633;SDS011;51043;52.406;9.690;2022-11-14T17:41:47;54.97;;;36.90;;
64633;SDS011;51043;52.406;9.690;2022-11-14T17:44:32;47.40;;;33.73;;
64633;SDS011;51043;52.406;9.690;2022-11-14T17:47:18;47.90;;;33.23;;
64633;SDS011;51043;52.406;9.690;2022-11-14T17:50:04;46.73;;;33.77;;
64633;SDS011;51043;52.406;9.690;2022-11-14T17:52:50;48.40;;;32.90;;
64633;SDS011;51043;52.406;9.690;2022-11-14T17:55:35;51.80;;;32.50;;
64633;SDS011;51043;52.406;9.690;2022-11-14T17:58:22;48.77;;;33.50;;
64633;SDS011;51043;52.406;9.690;2022-11-14T18:01:09;49.00;;;31.77;;
64633;SDS011;51043;52.406;9.690;2022-11-14T18:03:58;44.17;;;29.90;;
64633;SDS011;51043;52.406;9.690;2022-11-14T18:06:47;46.03;;;32.20;;
64633;SDS011;51043;52.406;9.690;2022-11-14T18:09:32;48.13;;;31.43;;
64633;SDS011;51043;52.406;9.690;2022-11-14T18:12:18;46.33;;;32.80;;
64633;SDS011;51043;52.406;9.690;2022-11-14T18:15:04;49.50;;;33.10;;
64633;SDS011;51043;52.406;9.690;2022-11-14T18:17:50;48.07;;;34.23;;
64633;SDS011;51043;52.406;9.690;2022-11-14T18:20:36;46.63;;;33.20;;
64633;SDS011;51043;52.406;9.690;2022-11-14T18:23:22;48.70;;;32.17;;
64633;SDS011;51043;52.406;9.690;2022-11-14T18:26:11;49.27;;;34.53;;